Terminal Aerodrome Forecast
Issued by NWS

Current Version | Previous Version | Graphics & Text | Print | Product List | Glossary On
Versions: 1 2 3 4 5 6 7 8 9 10 11 12 13 14 15 16 17 18 19 20 21 22 23 24
635
FTUS41 KRLX 182328
TAFCKB
TAF
KCKB 182328Z 1900/1924 VRB04KT P6SM BKN080
     FM190300 20005KT P6SM OVC050
     FM190400 25009G21KT P6SM -SHRA OVC030
     FM191700 29011G21KT P6SM OVC020=

USA.gov is the U.S. government's official web portal to all federal, state and local government web resources and services.